sensor_id;sensor_type;location;lat;lon;timestamp;P1;durP1;ratioP1;P2;durP2;ratioP2
21927;SDS011;11128;51.096;17.190;2022-11-15T00:01:52;72.50;;;31.42;;
21927;SDS011;11128;51.096;17.190;2022-11-15T00:06:53;66.78;;;29.58;;
21927;SDS011;11128;51.096;17.190;2022-11-15T00:11:55;75.75;;;31.17;;
21927;SDS011;11128;51.096;17.190;2022-11-15T00:16:56;70.05;;;30.13;;
21927;SDS011;11128;51.096;17.190;2022-11-15T00:21:57;70.97;;;30.63;;
21927;SDS011;11128;51.096;17.190;2022-11-15T00:26:58;71.00;;;30.58;;
21927;SDS011;11128;51.096;17.190;2022-11-15T00:31:59;72.75;;;30.58;;
21927;SDS011;11128;51.096;17.190;2022-11-15T00:37:00;76.63;;;31.33;;
21927;SDS011;11128;51.096;17.190;2022-11-15T00:42:02;79.20;;;32.17;;
21927;SDS011;11128;51.096;17.190;2022-11-15T00:47:03;71.75;;;31.33;;
21927;SDS011;11128;51.096;17.190;2022-11-15T00:52:05;68.07;;;28.67;;
21927;SDS011;11128;51.096;17.190;2022-11-15T00:57:06;69.22;;;28.73;;
21927;SDS011;11128;51.096;17.190;2022-11-15T01:02:07;63.67;;;28.80;;
21927;SDS011;11128;51.096;17.190;2022-11-15T01:07:09;69.82;;;27.60;;
21927;SDS011;11128;51.096;17.190;2022-11-15T01:12:10;72.05;;;30.98;;
21927;SDS011;11128;51.096;17.190;2022-11-15T01:17:11;69.05;;;29.45;;
21927;SDS011;11128;51.096;17.190;2022-11-15T01:22:13;76.45;;;29.73;;
21927;SDS011;11128;51.096;17.190;2022-11-15T01:27:14;76.45;;;31.25;;
21927;SDS011;11128;51.096;17.190;2022-11-15T01:32:15;74.45;;;29.02;;
21927;SDS011;11128;51.096;17.190;2022-11-15T01:37:17;65.35;;;27.25;;
21927;SDS011;11128;51.096;17.190;2022-11-15T01:42:18;65.13;;;27.15;;
21927;SDS011;11128;51.096;17.190;2022-11-15T01:47:22;67.20;;;28.60;;
21927;SDS011;11128;51.096;17.190;2022-11-15T01:52:26;80.68;;;30.30;;
21927;SDS011;11128;51.096;17.190;2022-11-15T01:57:30;65.88;;;26.38;;
21927;SDS011;11128;51.096;17.190;2022-11-15T02:02:32;65.38;;;27.58;;
21927;SDS011;11128;51.096;17.190;2022-11-15T02:07:34;68.20;;;28.48;;
21927;SDS011;11128;51.096;17.190;2022-11-15T02:12:36;61.53;;;26.60;;
21927;SDS011;11128;51.096;17.190;2022-11-15T02:22:58;61.47;;;27.42;;
21927;SDS011;11128;51.096;17.190;2022-11-15T02:43:56;63.10;;;25.83;;
21927;SDS011;11128;51.096;17.190;2022-11-15T02:49:02;64.40;;;25.77;;
21927;SDS011;11128;51.096;17.190;2022-11-15T02:54:04;57.13;;;26.48;;
21927;SDS011;11128;51.096;17.190;2022-11-15T03:04:41;54.03;;;24.02;;
21927;SDS011;11128;51.096;17.190;2022-11-15T03:20:13;54.97;;;23.15;;
21927;SDS011;11128;51.096;17.190;2022-11-15T03:25:18;53.40;;;23.45;;
21927;SDS011;11128;51.096;17.190;2022-11-15T03:30:22;55.05;;;23.50;;
21927;SDS011;11128;51.096;17.190;2022-11-15T03:35:25;54.97;;;24.00;;
21927;SDS011;11128;51.096;17.190;2022-11-15T03:40:51;54.25;;;23.10;;
21927;SDS011;11128;51.096;17.190;2022-11-15T03:46:15;50.88;;;22.75;;
21927;SDS011;11128;51.096;17.190;2022-11-15T03:51:21;51.20;;;22.75;;
21927;SDS011;11128;51.096;17.190;2022-11-15T03:56:22;53.55;;;23.17;;
21927;SDS011;11128;51.096;17.190;2022-11-15T04:01:23;53.03;;;22.48;;
21927;SDS011;11128;51.096;17.190;2022-11-15T04:06:25;54.42;;;23.73;;
21927;SDS011;11128;51.096;17.190;2022-11-15T04:11:26;58.85;;;24.23;;
21927;SDS011;11128;51.096;17.190;2022-11-15T04:16:28;50.38;;;21.90;;
21927;SDS011;11128;51.096;17.190;2022-11-15T04:21:29;53.97;;;23.00;;
21927;SDS011;11128;51.096;17.190;2022-11-15T04:26:49;49.83;;;22.33;;
21927;SDS011;11128;51.096;17.190;2022-11-15T04:31:50;53.85;;;21.67;;
21927;SDS011;11128;51.096;17.190;2022-11-15T04:36:51;51.33;;;22.20;;
21927;SDS011;11128;51.096;17.190;2022-11-15T04:42:11;47.10;;;21.77;;
21927;SDS011;11128;51.096;17.190;2022-11-15T04:47:13;50.85;;;21.20;;
21927;SDS011;11128;51.096;17.190;2022-11-15T04:52:14;53.38;;;22.23;;
21927;SDS011;11128;51.096;17.190;2022-11-15T04:57:16;51.38;;;20.95;;
21927;SDS011;11128;51.096;17.190;2022-11-15T05:02:17;47.00;;;20.35;;
21927;SDS011;11128;51.096;17.190;2022-11-15T05:07:21;50.03;;;21.25;;
21927;SDS011;11128;51.096;17.190;2022-11-15T05:12:23;50.70;;;20.80;;
21927;SDS011;11128;51.096;17.190;2022-11-15T05:17:24;53.20;;;21.15;;
21927;SDS011;11128;51.096;17.190;2022-11-15T05:22:25;43.92;;;20.67;;
21927;SDS011;11128;51.096;17.190;2022-11-15T05:27:27;57.15;;;22.55;;
21927;SDS011;11128;51.096;17.190;2022-11-15T05:32:28;53.42;;;21.20;;
21927;SDS011;11128;51.096;17.190;2022-11-15T05:37:30;56.15;;;22.85;;
21927;SDS011;11128;51.096;17.190;2022-11-15T05:42:31;47.58;;;22.75;;
21927;SDS011;11128;51.096;17.190;2022-11-15T05:47:32;49.17;;;22.08;;
21927;SDS011;11128;51.096;17.190;2022-11-15T05:52:36;48.53;;;22.55;;
21927;SDS011;11128;51.096;17.190;2022-11-15T05:57:40;54.05;;;23.15;;
21927;SDS011;11128;51.096;17.190;2022-11-15T06:02:42;52.85;;;22.92;;
21927;SDS011;11128;51.096;17.190;2022-11-15T06:07:43;65.28;;;24.10;;
21927;SDS011;11128;51.096;17.190;2022-11-15T06:12:45;65.53;;;25.83;;
21927;SDS011;11128;51.096;17.190;2022-11-15T06:17:46;58.17;;;23.73;;
21927;SDS011;11128;51.096;17.190;2022-11-15T06:22:47;59.42;;;24.20;;
21927;SDS011;11128;51.096;17.190;2022-11-15T06:27:55;59.17;;;23.17;;
21927;SDS011;11128;51.096;17.190;2022-11-15T06:32:59;70.75;;;29.25;;
21927;SDS011;11128;51.096;17.190;2022-11-15T06:38:06;81.32;;;29.70;;
21927;SDS011;11128;51.096;17.190;2022-11-15T06:43:10;77.15;;;28.20;;
21927;SDS011;11128;51.096;17.190;2022-11-15T06:48:11;62.50;;;25.58;;
21927;SDS011;11128;51.096;17.190;2022-11-15T06:53:13;66.15;;;27.42;;
21927;SDS011;11128;51.096;17.190;2022-11-15T06:58:14;71.65;;;29.50;;
21927;SDS011;11128;51.096;17.190;2022-11-15T07:03:15;69.65;;;28.15;;
21927;SDS011;11128;51.096;17.190;2022-11-15T07:08:16;65.00;;;29.98;;
21927;SDS011;11128;51.096;17.190;2022-11-15T07:13:17;69.72;;;30.15;;
21927;SDS011;11128;51.096;17.190;2022-11-15T07:18:19;52.55;;;24.17;;
21927;SDS011;11128;51.096;17.190;2022-11-15T07:23:21;49.08;;;21.80;;
21927;SDS011;11128;51.096;17.190;2022-11-15T07:28:22;47.33;;;22.52;;
21927;SDS011;11128;51.096;17.190;2022-11-15T07:33:23;53.88;;;24.75;;
21927;SDS011;11128;51.096;17.190;2022-11-15T07:38:24;56.40;;;23.85;;
21927;SDS011;11128;51.096;17.190;2022-11-15T07:43:26;70.32;;;27.35;;
21927;SDS011;11128;51.096;17.190;2022-11-15T07:48:28;61.28;;;29.20;;
21927;SDS011;11128;51.096;17.190;2022-11-15T07:53:30;58.05;;;26.17;;
21927;SDS011;11128;51.096;17.190;2022-11-15T07:58:32;56.85;;;25.27;;
21927;SDS011;11128;51.096;17.190;2022-11-15T08:03:33;53.17;;;25.02;;
21927;SDS011;11128;51.096;17.190;2022-11-15T08:08:34;56.67;;;25.08;;
21927;SDS011;11128;51.096;17.190;2022-11-15T08:13:36;61.78;;;27.73;;
21927;SDS011;11128;51.096;17.190;2022-11-15T08:18:37;54.72;;;26.50;;
21927;SDS011;11128;51.096;17.190;2022-11-15T08:23:38;53.20;;;24.33;;
21927;SDS011;11128;51.096;17.190;2022-11-15T08:28:41;51.67;;;26.10;;
21927;SDS011;11128;51.096;17.190;2022-11-15T08:33:43;55.25;;;25.15;;
21927;SDS011;11128;51.096;17.190;2022-11-15T08:38:45;50.08;;;24.40;;
21927;SDS011;11128;51.096;17.190;2022-11-15T08:43:46;47.28;;;24.27;;
21927;SDS011;11128;51.096;17.190;2022-11-15T08:48:48;46.67;;;24.70;;
21927;SDS011;11128;51.096;17.190;2022-11-15T08:53:49;50.92;;;24.67;;
21927;SDS011;11128;51.096;17.190;2022-11-15T08:58:50;45.95;;;23.98;;
21927;SDS011;11128;51.096;17.190;2022-11-15T09:03:51;44.42;;;22.40;;
21927;SDS011;11128;51.096;17.190;2022-11-15T09:08:53;47.08;;;23.85;;
21927;SDS011;11128;51.096;17.190;2022-11-15T09:13:54;45.75;;;22.98;;
21927;SDS011;11128;51.096;17.190;2022-11-15T09:18:56;44.72;;;23.90;;
21927;SDS011;11128;51.096;17.190;2022-11-15T09:23:57;42.33;;;21.92;;
21927;SDS011;11128;51.096;17.190;2022-11-15T09:28:59;42.90;;;22.42;;
21927;SDS011;11128;51.096;17.190;2022-11-15T09:34:02;45.10;;;23.95;;
21927;SDS011;11128;51.096;17.190;2022-11-15T09:39:03;41.80;;;23.15;;
21927;SDS011;11128;51.096;17.190;2022-11-15T09:45:09;42.35;;;22.33;;
21927;SDS011;11128;51.096;17.190;2022-11-15T09:49:58;49.15;;;22.48;;
21927;SDS011;11128;51.096;17.190;2022-11-15T09:55:01;36.25;;;21.15;;
21927;SDS011;11128;51.096;17.190;2022-11-15T10:05:23;36.58;;;18.83;;
21927;SDS011;11128;51.096;17.190;2022-11-15T10:10:32;37.65;;;18.98;;
21927;SDS011;11128;51.096;17.190;2022-11-15T10:15:39;31.42;;;17.98;;
21927;SDS011;11128;51.096;17.190;2022-11-15T10:25:53;30.35;;;16.50;;
21927;SDS011;11128;51.096;17.190;2022-11-15T10:30:58;27.55;;;15.68;;
21927;SDS011;11128;51.096;17.190;2022-11-15T10:41:11;25.20;;;14.57;;
21927;SDS011;11128;51.096;17.190;2022-11-15T10:46:22;26.88;;;15.10;;
21927;SDS011;11128;51.096;17.190;2022-11-15T10:51:26;23.95;;;14.07;;
21927;SDS011;11128;51.096;17.190;2022-11-15T10:56:29;25.02;;;14.48;;
21927;SDS011;11128;51.096;17.190;2022-11-15T11:01:30;26.70;;;15.90;;
21927;SDS011;11128;51.096;17.190;2022-11-15T11:06:53;32.20;;;16.40;;
21927;SDS011;11128;51.096;17.190;2022-11-15T11:11:55;27.27;;;16.05;;
21927;SDS011;11128;51.096;17.190;2022-11-15T11:22:16;25.73;;;15.88;;
21927;SDS011;11128;51.096;17.190;2022-11-15T11:49:09;23.40;;;13.55;;
21927;SDS011;11128;51.096;17.190;2022-11-15T11:54:24;22.13;;;12.25;;
21927;SDS011;11128;51.096;17.190;2022-11-15T11:59:48;17.35;;;11.35;;
21927;SDS011;11128;51.096;17.190;2022-11-15T12:04:57;20.30;;;10.95;;
21927;SDS011;11128;51.096;17.190;2022-11-15T12:10:14;17.73;;;10.80;;
21927;SDS011;11128;51.096;17.190;2022-11-15T12:15:18;20.67;;;11.35;;
21927;SDS011;11128;51.096;17.190;2022-11-15T12:20:31;15.30;;;9.63;;
21927;SDS011;11128;51.096;17.190;2022-11-15T12:36:00;15.05;;;9.48;;
21927;SDS011;11128;51.096;17.190;2022-11-15T12:41:22;15.95;;;8.90;;
21927;SDS011;11128;51.096;17.190;2022-11-15T12:56:42;14.88;;;8.80;;
21927;SDS011;11128;51.096;17.190;2022-11-15T13:06:49;14.27;;;9.63;;
21927;SDS011;11128;51.096;17.190;2022-11-15T13:11:52;13.57;;;8.93;;
21927;SDS011;11128;51.096;17.190;2022-11-15T13:16:58;14.70;;;9.70;;
21927;SDS011;11128;51.096;17.190;2022-11-15T13:22:00;15.82;;;9.98;;
21927;SDS011;11128;51.096;17.190;2022-11-15T13:27:24;13.40;;;9.68;;
21927;SDS011;11128;51.096;17.190;2022-11-15T13:32:25;18.45;;;11.02;;
21927;SDS011;11128;51.096;17.190;2022-11-15T13:37:27;21.83;;;11.95;;
21927;SDS011;11128;51.096;17.190;2022-11-15T13:42:31;21.17;;;13.05;;
21927;SDS011;11128;51.096;17.190;2022-11-15T13:47:33;18.52;;;11.20;;
21927;SDS011;11128;51.096;17.190;2022-11-15T13:52:35;17.63;;;11.32;;
21927;SDS011;11128;51.096;17.190;2022-11-15T14:02:41;23.33;;;14.77;;
21927;SDS011;11128;51.096;17.190;2022-11-15T14:13:03;19.67;;;12.07;;
21927;SDS011;11128;51.096;17.190;2022-11-15T14:18:05;20.10;;;11.25;;
21927;SDS011;11128;51.096;17.190;2022-11-15T14:23:23;19.75;;;11.15;;
21927;SDS011;11128;51.096;17.190;2022-11-15T14:28:32;53.35;;;26.77;;
21927;SDS011;11128;51.096;17.190;2022-11-15T14:33:38;40.00;;;21.02;;
21927;SDS011;11128;51.096;17.190;2022-11-15T14:38:40;37.20;;;18.73;;
21927;SDS011;11128;51.096;17.190;2022-11-15T14:43:43;31.80;;;17.67;;
21927;SDS011;11128;51.096;17.190;2022-11-15T14:48:45;27.42;;;16.30;;
21927;SDS011;11128;51.096;17.190;2022-11-15T14:53:46;29.90;;;15.55;;
21927;SDS011;11128;51.096;17.190;2022-11-15T14:58:48;32.97;;;20.38;;
21927;SDS011;11128;51.096;17.190;2022-11-15T15:03:50;31.02;;;19.83;;
21927;SDS011;11128;51.096;17.190;2022-11-15T15:08:57;28.50;;;17.95;;
21927;SDS011;11128;51.096;17.190;2022-11-15T15:13:58;44.17;;;22.40;;
21927;SDS011;11128;51.096;17.190;2022-11-15T15:19:02;49.78;;;23.60;;
21927;SDS011;11128;51.096;17.190;2022-11-15T15:24:03;52.80;;;26.83;;
21927;SDS011;11128;51.096;17.190;2022-11-15T15:29:04;51.58;;;28.83;;
21927;SDS011;11128;51.096;17.190;2022-11-15T15:34:06;59.60;;;29.85;;
21927;SDS011;11128;51.096;17.190;2022-11-15T15:39:08;54.22;;;28.13;;
21927;SDS011;11128;51.096;17.190;2022-11-15T15:44:12;69.07;;;33.65;;
21927;SDS011;11128;51.096;17.190;2022-11-15T15:49:13;69.45;;;31.70;;
21927;SDS011;11128;51.096;17.190;2022-11-15T15:54:14;66.60;;;32.80;;
21927;SDS011;11128;51.096;17.190;2022-11-15T15:59:15;56.63;;;29.88;;
21927;SDS011;11128;51.096;17.190;2022-11-15T16:04:17;61.53;;;30.63;;
21927;SDS011;11128;51.096;17.190;2022-11-15T16:09:19;61.28;;;28.80;;
21927;SDS011;11128;51.096;17.190;2022-11-15T16:14:41;61.30;;;28.20;;
21927;SDS011;11128;51.096;17.190;2022-11-15T16:19:43;75.35;;;31.40;;
21927;SDS011;11128;51.096;17.190;2022-11-15T16:24:44;69.10;;;30.80;;
21927;SDS011;11128;51.096;17.190;2022-11-15T16:29:45;71.18;;;28.38;;
21927;SDS011;11128;51.096;17.190;2022-11-15T16:34:47;78.13;;;31.55;;
21927;SDS011;11128;51.096;17.190;2022-11-15T16:39:48;69.15;;;28.67;;
21927;SDS011;11128;51.096;17.190;2022-11-15T16:44:50;81.72;;;35.95;;
21927;SDS011;11128;51.096;17.190;2022-11-15T16:49:51;88.13;;;39.03;;
21927;SDS011;11128;51.096;17.190;2022-11-15T16:54:52;87.20;;;39.08;;
21927;SDS011;11128;51.096;17.190;2022-11-15T16:59:54;74.35;;;36.65;;
21927;SDS011;11128;51.096;17.190;2022-11-15T17:04:55;71.95;;;34.25;;
21927;SDS011;11128;51.096;17.190;2022-11-15T17:09:57;66.60;;;31.58;;
21927;SDS011;11128;51.096;17.190;2022-11-15T17:14:58;55.85;;;27.92;;
21927;SDS011;11128;51.096;17.190;2022-11-15T17:20:05;63.90;;;29.95;;
21927;SDS011;11128;51.096;17.190;2022-11-15T17:25:32;69.53;;;33.72;;
21927;SDS011;11128;51.096;17.190;2022-11-15T17:30:53;84.47;;;37.60;;
21927;SDS011;11128;51.096;17.190;2022-11-15T17:35:56;88.00;;;40.92;;
21927;SDS011;11128;51.096;17.190;2022-11-15T17:41:01;90.45;;;42.90;;
21927;SDS011;11128;51.096;17.190;2022-11-15T17:46:11;86.25;;;41.17;;
21927;SDS011;11128;51.096;17.190;2022-11-15T17:51:17;79.97;;;34.80;;
21927;SDS011;11128;51.096;17.190;2022-11-15T17:56:38;56.17;;;29.52;;
21927;SDS011;11128;51.096;17.190;2022-11-15T18:01:45;57.65;;;26.85;;
21927;SDS011;11128;51.096;17.190;2022-11-15T18:07:06;60.97;;;27.33;;
21927;SDS011;11128;51.096;17.190;2022-11-15T18:12:12;57.72;;;26.70;;
21927;SDS011;11128;51.096;17.190;2022-11-15T18:17:14;63.45;;;29.75;;
21927;SDS011;11128;51.096;17.190;2022-11-15T18:22:34;70.75;;;33.42;;
21927;SDS011;11128;51.096;17.190;2022-11-15T18:27:55;65.07;;;31.05;;
21927;SDS011;11128;51.096;17.190;2022-11-15T18:32:56;56.38;;;28.13;;
21927;SDS011;11128;51.096;17.190;2022-11-15T18:38:17;51.50;;;26.27;;
21927;SDS011;11128;51.096;17.190;2022-11-15T18:43:18;63.08;;;27.50;;
21927;SDS011;11128;51.096;17.190;2022-11-15T18:48:39;61.38;;;28.10;;
21927;SDS011;11128;51.096;17.190;2022-11-15T18:54:01;61.58;;;28.45;;
21927;SDS011;11128;51.096;17.190;2022-11-15T18:59:21;68.88;;;32.42;;
21927;SDS011;11128;51.096;17.190;2022-11-15T19:04:22;75.57;;;38.00;;
21927;SDS011;11128;51.096;17.190;2022-11-15T19:09:24;101.63;;;45.03;;
21927;SDS011;11128;51.096;17.190;2022-11-15T19:14:38;119.68;;;52.70;;
21927;SDS011;11128;51.096;17.190;2022-11-15T19:19:44;123.70;;;55.83;;
21927;SDS011;11128;51.096;17.190;2022-11-15T19:24:50;122.75;;;54.47;;
21927;SDS011;11128;51.096;17.190;2022-11-15T19:29:57;114.13;;;52.40;;
21927;SDS011;11128;51.096;17.190;2022-11-15T19:35:17;92.32;;;42.15;;
21927;SDS011;11128;51.096;17.190;2022-11-15T19:40:19;88.55;;;42.30;;
21927;SDS011;11128;51.096;17.190;2022-11-15T19:45:20;84.03;;;41.10;;
21927;SDS011;11128;51.096;17.190;2022-11-15T19:50:22;92.72;;;43.75;;
21927;SDS011;11128;51.096;17.190;2022-11-15T19:55:23;92.07;;;44.15;;
21927;SDS011;11128;51.096;17.190;2022-11-15T20:00:25;86.95;;;43.40;;
21927;SDS011;11128;51.096;17.190;2022-11-15T20:05:26;89.25;;;46.20;;
21927;SDS011;11128;51.096;17.190;2022-11-15T20:10:27;83.82;;;42.40;;
21927;SDS011;11128;51.096;17.190;2022-11-15T20:15:48;75.13;;;38.42;;
21927;SDS011;11128;51.096;17.190;2022-11-15T20:20:55;74.90;;;35.85;;
21927;SDS011;11128;51.096;17.190;2022-11-15T20:26:18;86.72;;;41.20;;
21927;SDS011;11128;51.096;17.190;2022-11-15T20:31:19;118.65;;;56.60;;
21927;SDS011;11128;51.096;17.190;2022-11-15T20:36:21;128.30;;;59.75;;
21927;SDS011;11128;51.096;17.190;2022-11-15T20:41:23;134.05;;;60.53;;
21927;SDS011;11128;51.096;17.190;2022-11-15T20:46:25;135.88;;;61.10;;
21927;SDS011;11128;51.096;17.190;2022-11-15T20:51:27;111.88;;;56.65;;
21927;SDS011;11128;51.096;17.190;2022-11-15T20:56:28;111.45;;;53.67;;
21927;SDS011;11128;51.096;17.190;2022-11-15T21:01:29;104.03;;;50.55;;
21927;SDS011;11128;51.096;17.190;2022-11-15T21:06:31;83.03;;;41.78;;
21927;SDS011;11128;51.096;17.190;2022-11-15T21:11:32;90.82;;;45.88;;
21927;SDS011;11128;51.096;17.190;2022-11-15T21:16:52;98.25;;;47.72;;
21927;SDS011;11128;51.096;17.190;2022-11-15T21:21:53;86.65;;;45.22;;
21927;SDS011;11128;51.096;17.190;2022-11-15T21:26:55;86.30;;;43.47;;
21927;SDS011;11128;51.096;17.190;2022-11-15T21:31:57;92.63;;;46.53;;
21927;SDS011;11128;51.096;17.190;2022-11-15T21:36:58;85.65;;;43.92;;
21927;SDS011;11128;51.096;17.190;2022-11-15T21:41:59;90.55;;;45.03;;
21927;SDS011;11128;51.096;17.190;2022-11-15T21:47:01;81.45;;;42.28;;
21927;SDS011;11128;51.096;17.190;2022-11-15T21:52:02;79.45;;;41.55;;
21927;SDS011;11128;51.096;17.190;2022-11-15T21:57:04;96.63;;;48.45;;
21927;SDS011;11128;51.096;17.190;2022-11-15T22:02:07;110.53;;;51.67;;
21927;SDS011;11128;51.096;17.190;2022-11-15T22:07:14;98.65;;;46.67;;
21927;SDS011;11128;51.096;17.190;2022-11-15T22:12:16;90.97;;;47.22;;
21927;SDS011;11128;51.096;17.190;2022-11-15T22:17:18;100.10;;;49.05;;
21927;SDS011;11128;51.096;17.190;2022-11-15T22:22:19;99.05;;;49.08;;
21927;SDS011;11128;51.096;17.190;2022-11-15T22:27:21;100.88;;;48.92;;
21927;SDS011;11128;51.096;17.190;2022-11-15T22:32:22;97.53;;;46.42;;
21927;SDS011;11128;51.096;17.190;2022-11-15T22:37:24;104.00;;;49.22;;
21927;SDS011;11128;51.096;17.190;2022-11-15T22:42:25;102.13;;;48.05;;
21927;SDS011;11128;51.096;17.190;2022-11-15T22:47:27;96.78;;;48.75;;
21927;SDS011;11128;51.096;17.190;2022-11-15T22:52:28;102.30;;;47.92;;
21927;SDS011;11128;51.096;17.190;2022-11-15T22:57:30;107.45;;;50.45;;
21927;SDS011;11128;51.096;17.190;2022-11-15T23:02:31;101.38;;;47.88;;
21927;SDS011;11128;51.096;17.190;2022-11-15T23:07:33;92.45;;;46.08;;
21927;SDS011;11128;51.096;17.190;2022-11-15T23:12:34;99.97;;;48.45;;
21927;SDS011;11128;51.096;17.190;2022-11-15T23:17:54;92.13;;;43.22;;
21927;SDS011;11128;51.096;17.190;2022-11-15T23:22:56;84.22;;;41.00;;
21927;SDS011;11128;51.096;17.190;2022-11-15T23:28:00;95.45;;;43.22;;
21927;SDS011;11128;51.096;17.190;2022-11-15T23:33:02;83.57;;;39.13;;
21927;SDS011;11128;51.096;17.190;2022-11-15T23:38:22;84.38;;;40.65;;
21927;SDS011;11128;51.096;17.190;2022-11-15T23:43:24;91.03;;;42.42;;
21927;SDS011;11128;51.096;17.190;2022-11-15T23:48:25;89.38;;;41.58;;
21927;SDS011;11128;51.096;17.190;2022-11-15T23:53:27;91.40;;;42.15;;
21927;SDS011;11128;51.096;17.190;2022-11-15T23:58:29;91.90;;;41.63;;
